createdAt,value
2022-10-11T00:01:00.312Z,72.37
2022-10-11T00:03:32.795Z,72.25
2022-10-11T00:06:03.193Z,72.53
2022-10-11T00:08:31.599Z,72.05
2022-10-11T00:11:01.899Z,72.11
2022-10-11T00:13:29.791Z,72.47
2022-10-11T00:15:58.267Z,72.60
2022-10-11T00:18:25.870Z,73.27
2022-10-11T00:21:02.725Z,73.27
2022-10-11T00:23:30.263Z,73.42
2022-10-11T00:25:59.949Z,73.70
2022-10-11T00:28:27.465Z,73.94
2022-10-11T00:30:55.352Z,74.44
2022-10-11T00:33:23.004Z,74.71
2022-10-11T00:35:50.695Z,75.26
2022-10-11T00:38:18.930Z,75.35
2022-10-11T00:40:46.861Z,75.94
2022-10-11T00:43:19.896Z,75.73
2022-10-11T00:45:56.542Z,75.83
2022-10-11T00:48:48.603Z,75.76
2022-10-11T00:51:23.876Z,76.30
2022-10-11T00:53:52.890Z,76.75
2022-10-11T00:56:27.274Z,76.38
2022-10-11T00:58:58.183Z,76.71
2022-10-11T01:01:25.734Z,76.28
2022-10-11T01:03:53.350Z,76.71
2022-10-11T01:06:20.901Z,77.89
2022-10-11T01:08:48.613Z,77.62
2022-10-11T01:11:21.378Z,77.71
2022-10-11T01:13:59.748Z,77.94
2022-10-11T01:16:35.067Z,77.88
2022-10-11T01:19:11.897Z,77.89
2022-10-11T01:22:17.751Z,77.93
2022-10-11T01:24:54.546Z,78.22
2022-10-11T01:27:35.957Z,77.55
2022-10-11T01:30:29.854Z,77.99
2022-10-11T01:33:16.069Z,78.05
2022-10-11T01:35:56.357Z,77.51
2022-10-11T01:38:39.020Z,77.95
2022-10-11T01:41:14.245Z,77.88
2022-10-11T01:43:43.369Z,77.92
2022-10-11T01:46:11.791Z,78.06
2022-10-11T01:48:54.665Z,78.22
2022-10-11T01:51:28.711Z,78.34
2022-10-11T01:54:24.591Z,78.83
2022-10-11T01:57:29.859Z,78.64
2022-10-11T02:00:26.987Z,78.68
2022-10-11T02:03:09.477Z,78.31
2022-10-11T02:06:08.883Z,78.64
2022-10-11T02:08:57.091Z,79.42
2022-10-11T02:11:33.903Z,80.36
2022-10-11T02:14:09.132Z,81.04
2022-10-11T02:16:52.171Z,80.66
2022-10-11T02:19:22.857Z,80.81
2022-10-11T02:21:59.073Z,80.70
2022-10-11T02:24:32.126Z,80.99
2022-10-11T02:27:01.266Z,80.45
2022-10-11T02:29:32.795Z,80.37
2022-10-11T02:32:02.036Z,79.78
2022-10-11T02:34:34.452Z,79.94
2022-10-11T02:37:16.623Z,79.87
2022-10-11T02:39:55.369Z,79.40
2022-10-11T02:42:30.710Z,78.79
2022-10-11T02:45:08.356Z,78.11
2022-10-11T02:47:36.174Z,77.64
2022-10-11T02:50:04.554Z,77.58
2022-10-11T02:52:34.542Z,77.40
2022-10-11T02:55:02.130Z,77.34
2022-10-11T02:57:31.921Z,77.36
2022-10-11T02:59:59.411Z,77.55
2022-10-11T03:02:26.913Z,77.75
2022-10-11T03:04:54.389Z,77.88
2022-10-11T03:07:21.869Z,77.90
2022-10-11T03:09:51.778Z,78.24
2022-10-11T03:12:19.360Z,78.31
2022-10-11T03:14:47.081Z,78.12
2022-10-11T03:17:34.983Z,77.30
2022-10-11T03:20:02.062Z,76.87
2022-10-11T03:22:31.946Z,77.19
2022-10-11T03:25:03.641Z,77.45
2022-10-11T03:27:31.961Z,77.35
2022-10-11T03:29:59.455Z,77.00
2022-10-11T03:32:27.363Z,77.10
2022-10-11T03:34:54.986Z,77.83
2022-10-11T03:37:25.187Z,76.82
2022-10-11T03:39:52.720Z,77.16
2022-10-11T03:42:23.032Z,77.74
2022-10-11T03:44:52.671Z,77.97
2022-10-11T03:47:20.177Z,77.96
2022-10-11T03:49:47.668Z,78.00
2022-10-11T03:52:15.159Z,77.98
2022-10-11T03:54:43.102Z,78.01
2022-10-11T03:57:15.328Z,77.23
2022-10-11T03:59:42.881Z,77.33
2022-10-11T04:02:10.591Z,76.50
2022-10-11T04:04:38.160Z,76.21
2022-10-11T04:07:08.385Z,75.33
2022-10-11T04:09:39.322Z,75.52
2022-10-11T04:12:07.181Z,76.25
2022-10-11T04:14:35.975Z,76.69
2022-10-11T04:17:05.841Z,76.25
2022-10-11T04:19:33.351Z,76.55
2022-10-11T04:22:03.242Z,75.56
2022-10-11T04:24:30.786Z,75.41
2022-10-11T04:27:00.577Z,75.57
2022-10-11T04:29:32.419Z,75.55
2022-10-11T04:32:00.609Z,76.46
2022-10-11T04:34:31.435Z,76.89
2022-10-11T04:36:58.981Z,77.75
2022-10-11T04:39:26.577Z,77.86
2022-10-11T04:41:56.561Z,78.43
2022-10-11T04:44:24.087Z,78.52
2022-10-11T04:46:51.576Z,78.95
2022-10-11T04:49:21.237Z,79.27
2022-10-11T04:51:48.749Z,79.52
2022-10-11T04:54:18.735Z,79.34
2022-10-11T04:56:46.476Z,79.90
2022-10-11T04:59:14.097Z,80.09
2022-10-11T05:01:43.865Z,80.40
2022-10-11T05:04:11.415Z,79.28
2022-10-11T05:06:38.916Z,77.77
2022-10-11T05:09:06.422Z,77.34
2022-10-11T05:11:34.038Z,76.61
2022-10-11T05:14:03.969Z,75.96
2022-10-11T05:16:34.013Z,75.41
2022-10-11T05:19:01.535Z,74.90
2022-10-11T05:21:30.585Z,75.52
2022-10-11T05:24:01.749Z,75.30
2022-10-11T05:26:29.737Z,75.13
2022-10-11T05:28:57.654Z,76.22
2022-10-11T05:31:25.620Z,75.84
2022-10-11T05:33:53.701Z,76.25
2022-10-11T05:36:21.297Z,76.48
2022-10-11T05:38:48.854Z,76.75
2022-10-11T05:41:18.878Z,76.17
2022-10-11T05:43:47.537Z,76.26
2022-10-11T05:46:17.758Z,76.31
2022-10-11T05:48:47.495Z,76.16
2022-10-11T05:51:14.995Z,76.15
2022-10-11T05:53:42.807Z,76.12
2022-10-11T05:56:20.840Z,75.75
2022-10-11T05:58:50.794Z,75.84
2022-10-11T06:01:20.974Z,75.16
2022-10-11T06:03:50.968Z,74.68
2022-10-11T06:06:21.728Z,74.91
2022-10-11T06:08:50.025Z,74.39
2022-10-11T06:11:25.237Z,74.07
2022-10-11T06:13:58.992Z,73.80
2022-10-11T06:16:27.316Z,72.05
2022-10-11T06:18:58.082Z,70.40
2022-10-11T06:21:26.195Z,70.01
2022-10-11T06:24:00.002Z,69.25
2022-10-11T06:26:28.888Z,68.27
2022-10-11T06:28:56.559Z,66.59
2022-10-11T06:31:26.579Z,67.00
2022-10-11T06:33:54.065Z,66.18
2022-10-11T06:36:21.646Z,66.36
2022-10-11T06:38:52.944Z,66.33
2022-10-11T06:41:20.421Z,65.90
2022-10-11T06:43:49.432Z,66.19
2022-10-11T06:46:18.609Z,65.76
2022-10-11T06:48:47.625Z,65.82
2022-10-11T06:51:16.680Z,65.61
2022-10-11T06:53:44.414Z,64.93
2022-10-11T06:56:13.906Z,64.16
2022-10-11T06:58:41.652Z,64.22
2022-10-11T07:01:16.587Z,64.24
2022-10-11T07:03:44.145Z,63.77
2022-10-11T07:06:15.417Z,63.02
2022-10-11T07:08:43.348Z,61.68
2022-10-11T07:11:14.324Z,61.58
2022-10-11T07:13:42.603Z,60.55
2022-10-11T07:16:12.759Z,58.13
2022-10-11T07:18:40.597Z,56.27
2022-10-11T07:21:13.940Z,53.20
2022-10-11T07:23:41.973Z,52.26
2022-10-11T07:26:10.993Z,50.49
2022-10-11T07:28:40.077Z,47.09
2022-10-11T07:31:34.675Z,47.49
2022-10-11T07:34:04.332Z,46.89
2022-10-11T07:36:31.870Z,45.92
2022-10-11T07:38:59.584Z,49.10
2022-10-11T07:41:27.144Z,51.02
2022-10-11T07:43:55.135Z,52.86
2022-10-11T07:46:22.944Z,54.19
2022-10-11T07:48:55.087Z,55.40
2022-10-11T07:51:24.969Z,55.63
2022-10-11T07:53:55.823Z,56.15
2022-10-11T07:56:28.546Z,56.43
2022-10-11T07:59:03.522Z,56.27
2022-10-11T08:01:32.753Z,56.02
2022-10-11T08:04:01.018Z,55.61
2022-10-11T08:06:32.665Z,54.72
2022-10-11T08:09:01.530Z,51.56
2022-10-11T08:11:37.997Z,47.98
2022-10-11T08:14:09.163Z,45.74
2022-10-11T08:16:37.516Z,43.24
2022-10-11T08:19:05.148Z,42.00
2022-10-11T08:21:33.831Z,41.69
2022-10-11T08:24:03.909Z,41.46
2022-10-11T08:26:32.178Z,41.07
2022-10-11T08:29:02.273Z,41.16
2022-10-11T08:31:30.416Z,40.31
2022-10-11T08:33:58.257Z,40.40
2022-10-11T08:36:25.805Z,40.79
2022-10-11T08:38:53.420Z,40.71
2022-10-11T08:41:47.143Z,40.42
2022-10-11T08:44:46.416Z,39.16
2022-10-11T08:47:36.363Z,39.86
2022-10-11T08:50:07.417Z,38.76
2022-10-11T08:52:45.906Z,39.72
2022-10-11T08:55:43.988Z,39.40
2022-10-11T08:58:18.465Z,39.24
2022-10-11T09:00:49.205Z,39.39
2022-10-11T09:03:53.636Z,39.24
2022-10-11T09:06:39.566Z,38.88
2022-10-11T09:09:50.177Z,38.50
2022-10-11T09:12:30.996Z,39.72
2022-10-11T09:15:21.578Z,39.28
2022-10-11T09:18:09.793Z,41.29
2022-10-11T09:20:47.888Z,41.42
2022-10-11T09:23:47.386Z,41.60
2022-10-11T09:26:20.895Z,40.87
2022-10-11T09:29:16.996Z,40.09
2022-10-11T09:31:53.423Z,39.35
2022-10-11T09:34:22.955Z,39.08
2022-10-11T09:37:20.135Z,38.37
2022-10-11T09:39:54.742Z,37.90
2022-10-11T09:42:22.551Z,37.80
2022-10-11T09:44:51.946Z,38.37
2022-10-11T09:47:33.071Z,37.61
2022-10-11T09:50:06.555Z,36.48
2022-10-11T09:52:34.632Z,38.22
2022-10-11T09:55:03.626Z,37.59
2022-10-11T09:57:33.968Z,39.10
2022-10-11T10:00:21.763Z,38.12
2022-10-11T10:02:55.070Z,38.60
2022-10-11T10:05:25.175Z,37.47
2022-10-11T10:08:10.765Z,37.80
2022-10-11T10:10:44.066Z,37.24
2022-10-11T10:13:44.431Z,37.66
2022-10-11T10:16:26.921Z,38.33
2022-10-11T10:18:57.782Z,39.70
2022-10-11T10:21:29.535Z,39.40
2022-10-11T10:24:00.163Z,39.22
2022-10-11T10:26:28.498Z,39.97
2022-10-11T10:29:02.385Z,41.45
2022-10-11T10:32:14.426Z,42.50
2022-10-11T10:35:29.362Z,44.68
2022-10-11T10:38:41.797Z,45.58
2022-10-11T10:41:16.609Z,46.75
2022-10-11T10:43:53.088Z,47.04
2022-10-11T10:47:05.152Z,47.13
2022-10-11T10:49:53.528Z,48.13
2022-10-11T10:52:47.198Z,47.10
2022-10-11T10:55:59.887Z,47.38
2022-10-11T10:58:50.934Z,46.58
2022-10-11T11:01:26.311Z,46.18
2022-10-11T11:04:14.241Z,45.04
2022-10-11T11:06:54.810Z,44.03
2022-10-11T11:09:40.790Z,44.14
2022-10-11T11:12:39.069Z,44.25
2022-10-11T11:15:15.433Z,44.22
2022-10-11T11:18:17.502Z,43.66
2022-10-11T11:21:19.740Z,42.97
2022-10-11T11:24:01.310Z,42.74
2022-10-11T11:26:46.887Z,41.80
2022-10-11T11:29:43.565Z,42.25
2022-10-11T11:32:45.829Z,41.40
2022-10-11T11:35:38.243Z,41.22
2022-10-11T11:38:16.387Z,39.61
2022-10-11T11:40:49.733Z,41.31
2022-10-11T11:43:37.573Z,41.58
2022-10-11T11:46:18.617Z,39.71
2022-10-11T11:48:46.788Z,39.07
2022-10-11T11:51:27.812Z,39.19
2022-10-11T11:54:13.111Z,39.10
2022-10-11T11:56:55.419Z,39.46
2022-10-11T11:59:56.926Z,40.04
2022-10-11T12:02:55.447Z,39.38
2022-10-11T12:05:30.718Z,38.73
2022-10-11T12:08:00.659Z,38.77
2022-10-11T12:10:41.034Z,39.11
2022-10-11T12:13:32.452Z,39.03
2022-10-11T12:16:04.822Z,39.27
2022-10-11T12:18:33.499Z,40.15
2022-10-11T12:21:22.971Z,39.90
2022-10-11T12:23:56.452Z,40.21
2022-10-11T12:26:29.777Z,39.53
2022-10-11T12:29:34.989Z,38.98
2022-10-11T12:32:02.455Z,39.45
2022-10-11T12:34:35.757Z,41.72
2022-10-11T12:37:32.635Z,43.13
2022-10-11T12:40:01.176Z,45.14
2022-10-11T12:42:32.945Z,46.75
2022-10-11T12:45:13.043Z,46.97
2022-10-11T12:47:53.094Z,47.61
2022-10-11T12:50:43.697Z,48.37
2022-10-11T12:53:20.016Z,46.21
2022-10-11T12:55:47.618Z,44.93
2022-10-11T12:58:38.377Z,44.01
2022-10-11T13:01:05.885Z,43.06
2022-10-11T13:03:53.369Z,41.96
2022-10-11T13:06:20.887Z,43.21
2022-10-11T13:09:00.325Z,44.03
2022-10-11T13:11:36.654Z,44.46
2022-10-11T13:14:30.343Z,46.22
2022-10-11T13:17:00.526Z,47.28
2022-10-11T13:19:29.647Z,47.33
2022-10-11T13:22:04.645Z,48.37
2022-10-11T13:24:42.800Z,49.51
2022-10-11T13:27:20.495Z,50.64
2022-10-11T13:29:50.157Z,52.22
2022-10-11T13:32:26.801Z,52.23
2022-10-11T13:34:57.715Z,53.14
2022-10-11T13:37:28.864Z,53.94
2022-10-11T13:39:58.175Z,54.48
2022-10-11T13:42:31.975Z,54.61
2022-10-11T13:45:01.120Z,55.40
2022-10-11T13:47:32.947Z,56.15
2022-10-11T13:50:18.577Z,57.08
2022-10-11T13:53:08.006Z,57.93
2022-10-11T13:55:50.520Z,59.86
2022-10-11T13:58:27.037Z,58.96
2022-10-11T14:00:58.498Z,59.45
2022-10-11T14:03:42.338Z,58.13
2022-10-11T14:06:09.965Z,59.04
2022-10-11T14:08:45.879Z,60.18
2022-10-11T14:11:15.163Z,58.18
2022-10-11T14:13:47.797Z,59.19
2022-10-11T14:16:30.844Z,57.99
2022-10-11T14:19:01.247Z,56.85
2022-10-11T14:21:46.775Z,56.53
2022-10-11T14:24:17.798Z,57.43
2022-10-11T14:26:47.863Z,56.25
2022-10-11T14:29:28.963Z,57.00
2022-10-11T14:32:03.113Z,56.76
2022-10-11T14:34:31.580Z,56.53
2022-10-11T14:36:59.110Z,56.96
2022-10-11T14:39:28.265Z,57.41
2022-10-11T14:41:55.881Z,56.97
2022-10-11T14:44:24.278Z,56.61
2022-10-11T14:46:55.338Z,56.98
2022-10-11T14:49:26.090Z,56.70
2022-10-11T14:51:57.778Z,58.78
2022-10-11T14:54:27.417Z,58.87
2022-10-11T14:56:57.914Z,58.98
2022-10-11T14:59:28.923Z,58.82
2022-10-11T15:01:59.088Z,58.97
2022-10-11T15:04:27.999Z,58.83
2022-10-11T15:06:57.807Z,59.63
2022-10-11T15:09:25.903Z,59.23
2022-10-11T15:11:55.231Z,59.71
2022-10-11T15:14:24.461Z,59.94
2022-10-11T15:16:52.246Z,60.18
2022-10-11T15:19:25.182Z,60.30
2022-10-11T15:21:53.219Z,60.03
2022-10-11T15:24:20.910Z,60.38
2022-10-11T15:26:51.555Z,61.18
2022-10-11T15:29:21.794Z,62.48
2022-10-11T15:31:51.666Z,61.68
2022-10-11T15:34:19.161Z,62.90
2022-10-11T15:36:47.028Z,63.80
2022-10-11T15:39:27.892Z,64.88
2022-10-11T15:41:55.528Z,66.14
2022-10-11T15:44:25.480Z,66.81
2022-10-11T15:46:53.389Z,67.59
2022-10-11T15:49:20.970Z,68.55
2022-10-11T15:51:49.595Z,68.87
2022-10-11T15:54:17.803Z,69.36
2022-10-11T15:56:45.325Z,69.96
2022-10-11T15:59:17.855Z,69.47
2022-10-11T16:01:46.693Z,69.18
2022-10-11T16:04:14.235Z,68.86
2022-10-11T16:06:42.027Z,69.62
2022-10-11T16:09:09.674Z,69.78
2022-10-11T16:11:37.214Z,70.76
2022-10-11T16:14:07.154Z,70.97
2022-10-11T16:16:34.743Z,71.35
2022-10-11T16:19:02.247Z,71.59
2022-10-11T16:21:30.872Z,72.56
2022-10-11T16:24:01.443Z,72.96
2022-10-11T16:26:28.952Z,73.25
2022-10-11T16:28:58.772Z,74.04
2022-10-11T16:31:26.434Z,74.35
2022-10-11T16:33:53.995Z,75.20
2022-10-11T16:36:40.745Z,75.11
2022-10-11T16:39:18.240Z,76.15
2022-10-11T16:41:47.187Z,77.53
2022-10-11T16:44:17.559Z,77.85
2022-10-11T16:46:48.190Z,78.36
2022-10-11T16:49:22.441Z,78.65
2022-10-11T16:51:51.735Z,79.11
2022-10-11T16:54:22.246Z,79.57
2022-10-11T16:56:50.990Z,79.74
2022-10-11T16:59:21.146Z,80.14
2022-10-11T17:01:48.984Z,81.09
2022-10-11T17:04:18.892Z,81.46
2022-10-11T17:06:46.526Z,81.17
2022-10-11T17:09:14.617Z,81.60
2022-10-11T17:11:42.178Z,81.34
2022-10-11T17:14:11.529Z,81.19
2022-10-11T17:16:39.107Z,81.41
2022-10-11T17:19:10.853Z,81.35
2022-10-11T17:21:41.519Z,81.66
2022-10-11T17:24:09.083Z,81.99
2022-10-11T17:26:38.733Z,81.65
2022-10-11T17:29:06.265Z,81.36
2022-10-11T17:31:33.810Z,81.88
2022-10-11T17:34:01.971Z,81.61
2022-10-11T17:36:34.008Z,81.44
2022-10-11T17:39:09.319Z,82.09
2022-10-11T17:41:37.070Z,82.08
2022-10-11T17:44:07.016Z,82.24
2022-10-11T17:46:37.114Z,82.25
2022-10-11T17:49:07.904Z,81.81
2022-10-11T17:51:37.507Z,81.43
2022-10-11T17:54:06.123Z,81.33
2022-10-11T17:56:37.761Z,80.91
2022-10-11T17:59:06.082Z,81.26
2022-10-11T18:01:33.774Z,81.45
2022-10-11T18:04:03.524Z,81.58
2022-10-11T18:06:38.628Z,81.11
2022-10-11T18:09:06.712Z,81.24
2022-10-11T18:11:34.327Z,81.52
2022-10-11T18:14:05.246Z,81.95
2022-10-11T18:16:33.709Z,82.22
2022-10-11T18:19:03.558Z,82.61
2022-10-11T18:21:34.729Z,82.86
2022-10-11T18:24:03.958Z,83.53
2022-10-11T18:26:31.623Z,83.67
2022-10-11T18:28:59.743Z,83.89
2022-10-11T18:31:30.227Z,84.34
2022-10-11T18:33:58.188Z,84.66
2022-10-11T18:36:28.078Z,85.34
2022-10-11T18:38:58.160Z,85.54
2022-10-11T18:41:31.830Z,86.15
2022-10-11T18:44:02.947Z,86.64
2022-10-11T18:46:31.310Z,86.23
2022-10-11T18:49:02.301Z,86.58
2022-10-11T18:51:35.366Z,86.80
2022-10-11T18:54:03.720Z,86.75
2022-10-11T18:56:34.756Z,86.48
2022-10-11T18:59:02.668Z,86.58
2022-10-11T19:01:35.761Z,86.74
2022-10-11T19:04:04.350Z,86.85
2022-10-11T19:06:37.277Z,87.16
2022-10-11T19:09:11.192Z,87.40
2022-10-11T19:11:41.774Z,87.04
2022-10-11T19:14:12.128Z,87.59
2022-10-11T19:16:41.826Z,87.30
2022-10-11T19:19:13.196Z,87.84
2022-10-11T19:21:40.802Z,88.29
2022-10-11T19:24:08.615Z,88.60
2022-10-11T19:26:40.803Z,88.46
2022-10-11T19:29:17.350Z,88.65
2022-10-11T19:31:50.931Z,89.00
2022-10-11T19:34:18.773Z,89.34
2022-10-11T19:36:46.680Z,89.54
2022-10-11T19:39:18.751Z,89.48
2022-10-11T19:41:48.807Z,89.51
2022-10-11T19:44:17.512Z,89.54
2022-10-11T19:46:51.456Z,89.51
2022-10-11T19:49:21.536Z,90.13
2022-10-11T19:51:49.121Z,90.14
2022-10-11T19:54:16.847Z,89.86
2022-10-11T19:56:44.913Z,89.72
2022-10-11T19:59:13.130Z,89.27
2022-10-11T20:01:41.528Z,89.15
2022-10-11T20:04:27.389Z,88.91
2022-10-11T20:06:59.397Z,88.94
2022-10-11T20:09:30.044Z,88.73
2022-10-11T20:11:58.243Z,88.68
2022-10-11T20:14:26.157Z,88.62
2022-10-11T20:16:53.688Z,88.87
2022-10-11T20:19:26.227Z,88.67
2022-10-11T20:21:55.548Z,88.36
2022-10-11T20:24:23.087Z,88.93
2022-10-11T20:26:50.563Z,88.97
2022-10-11T20:29:20.615Z,88.98
2022-10-11T20:31:48.123Z,89.12
2022-10-11T20:34:15.615Z,88.85
2022-10-11T20:36:48.201Z,89.12
2022-10-11T20:39:16.818Z,89.31
2022-10-11T20:41:44.339Z,89.44
2022-10-11T20:44:13.140Z,89.67
2022-10-11T20:46:43.115Z,90.01
2022-10-11T20:49:12.489Z,90.25
2022-10-11T20:51:43.351Z,90.74
2022-10-11T20:54:11.262Z,90.56
2022-10-11T20:56:42.131Z,90.96
2022-10-11T20:59:11.127Z,91.21
2022-10-11T21:01:40.919Z,90.88
2022-10-11T21:04:11.126Z,91.89
2022-10-11T21:06:40.773Z,92.22
2022-10-11T21:09:12.673Z,92.41
2022-10-11T21:11:43.142Z,92.33
2022-10-11T21:14:10.663Z,92.85
2022-10-11T21:16:38.162Z,92.82
2022-10-11T21:19:06.219Z,92.78
2022-10-11T21:21:35.953Z,93.03
2022-10-11T21:24:04.126Z,93.34
2022-10-11T21:26:35.228Z,93.75
2022-10-11T21:29:04.038Z,93.62
2022-10-11T21:31:34.380Z,93.37
2022-10-11T21:34:04.962Z,93.71
2022-10-11T21:36:32.434Z,94.18
2022-10-11T21:38:59.951Z,94.07
2022-10-11T21:41:29.832Z,94.41
2022-10-11T21:43:58.067Z,94.83
2022-10-11T21:47:04.855Z,94.71
2022-10-11T21:49:18.615Z,94.72
2022-10-11T21:51:46.474Z,94.71
2022-10-11T21:54:13.972Z,94.51
2022-10-11T21:56:42.065Z,95.56
2022-10-11T21:59:12.319Z,94.98
2022-10-11T22:01:41.682Z,94.60
2022-10-11T22:04:09.500Z,94.36
2022-10-11T22:06:40.545Z,94.82
2022-10-11T22:09:09.242Z,95.25
2022-10-11T22:11:39.299Z,95.51
2022-10-11T22:14:06.953Z,95.19
2022-10-11T22:16:35.640Z,95.48
2022-10-11T22:19:03.372Z,95.54
2022-10-11T22:21:30.908Z,95.74
2022-10-11T22:23:58.711Z,96.18
2022-10-11T22:26:30.973Z,96.19
2022-10-11T22:29:00.155Z,96.35
2022-10-11T22:31:29.807Z,96.25
2022-10-11T22:34:01.628Z,96.40
2022-10-11T22:36:30.857Z,96.58
2022-10-11T22:39:07.646Z,96.85
2022-10-11T22:41:36.416Z,96.95
2022-10-11T22:44:04.450Z,97.22
2022-10-11T22:46:31.953Z,97.27
2022-10-11T22:48:59.547Z,97.05
2022-10-11T22:51:27.076Z,96.99
2022-10-11T22:53:54.554Z,97.18
2022-10-11T22:56:22.023Z,97.30
2022-10-11T22:58:49.710Z,97.36
2022-10-11T23:01:17.552Z,97.40
2022-10-11T23:03:49.098Z,97.95
2022-10-11T23:06:18.943Z,97.66
2022-10-11T23:08:46.539Z,97.81
2022-10-11T23:11:14.053Z,97.57
2022-10-11T23:13:41.642Z,97.56
2022-10-11T23:16:13.840Z,97.76
2022-10-11T23:18:41.820Z,97.52
2022-10-11T23:21:13.125Z,97.87
2022-10-11T23:23:42.842Z,97.89
2022-10-11T23:26:13.690Z,97.58
2022-10-11T23:28:44.982Z,98.04
2022-10-11T23:31:18.385Z,98.08
2022-10-11T23:33:47.227Z,97.95
2022-10-11T23:36:20.325Z,97.78
2022-10-11T23:38:53.230Z,97.70
2022-10-11T23:41:22.250Z,97.89
2022-10-11T23:43:50.009Z,97.84
2022-10-11T23:46:19.008Z,97.51
2022-10-11T23:48:48.997Z,97.26
2022-10-11T23:51:16.857Z,97.71
2022-10-11T23:53:44.482Z,97.34
2022-10-11T23:56:12.807Z,97.55
2022-10-11T23:58:40.547Z,97.76
